createdAt,value
2022-12-05T00:00:47.351Z,38.93
2022-12-05T00:02:50.019Z,34.87
2022-12-05T00:04:52.905Z,36.70
2022-12-05T00:06:56.972Z,36.90
2022-12-05T00:09:00.083Z,36.73
2022-12-05T00:11:02.798Z,34.93
2022-12-05T00:13:06.247Z,35.83
2022-12-05T00:15:12.366Z,35.17
2022-12-05T00:17:15.242Z,36.43
2022-12-05T00:19:18.304Z,36.97
2022-12-05T00:21:27.291Z,36.20
2022-12-05T00:23:31.595Z,36.60
2022-12-05T00:25:37.319Z,38.87
2022-12-05T00:27:40.230Z,36.67
2022-12-05T00:29:43.151Z,36.97
2022-12-05T00:31:46.433Z,36.87
2022-12-05T00:33:50.105Z,37.10
2022-12-05T00:35:52.818Z,38.20
2022-12-05T00:37:55.497Z,37.93
2022-12-05T00:39:59.712Z,39.00
2022-12-05T00:42:02.782Z,38.43
2022-12-05T00:44:06.198Z,38.23
2022-12-05T00:46:12.151Z,38.37
2022-12-05T00:48:15.141Z,39.33
2022-12-05T00:50:18.136Z,38.40
2022-12-05T00:52:20.872Z,39.70
2022-12-05T00:54:23.713Z,39.37
2022-12-05T00:56:29.483Z,39.13
2022-12-05T00:58:33.347Z,38.70
2022-12-05T01:00:36.302Z,38.73
2022-12-05T01:02:39.119Z,40.10
2022-12-05T01:04:42.089Z,38.93
2022-12-05T01:06:45.130Z,40.40
2022-12-05T01:08:48.349Z,39.63
2022-12-05T01:10:54.807Z,38.50
2022-12-05T01:12:59.205Z,37.87
2022-12-05T01:15:02.080Z,40.17
2022-12-05T01:17:04.964Z,38.40
2022-12-05T01:19:10.795Z,39.00
2022-12-05T01:21:13.714Z,39.37
2022-12-05T01:23:17.224Z,39.67
2022-12-05T01:25:19.945Z,39.57
2022-12-05T01:27:22.705Z,40.13
2022-12-05T01:29:27.131Z,40.77
2022-12-05T01:31:31.624Z,42.00
2022-12-05T01:33:35.032Z,39.13
2022-12-05T01:35:40.470Z,38.57
2022-12-05T01:37:43.316Z,40.10
2022-12-05T01:39:46.141Z,38.80
2022-12-05T01:41:50.753Z,38.53
2022-12-05T01:43:58.321Z,39.47
2022-12-05T01:46:02.475Z,38.70
2022-12-05T01:48:08.494Z,39.67
2022-12-05T01:50:11.909Z,41.07
2022-12-05T01:52:18.051Z,38.33
2022-12-05T01:54:23.271Z,37.47
2022-12-05T01:56:26.239Z,37.60
2022-12-05T01:58:33.891Z,39.93
2022-12-05T02:00:36.642Z,37.20
2022-12-05T02:02:42.655Z,39.50
2022-12-05T02:04:51.331Z,36.57
2022-12-05T02:06:54.201Z,36.43
2022-12-05T02:08:57.272Z,39.20
2022-12-05T02:11:00.293Z,40.30
2022-12-05T02:13:12.275Z,38.73
2022-12-05T02:15:24.391Z,37.80
2022-12-05T02:17:39.032Z,37.63
2022-12-05T02:20:10.170Z,37.03
2022-12-05T02:22:36.690Z,36.97
2022-12-05T02:25:01.697Z,35.83
2022-12-05T02:27:29.567Z,35.53
2022-12-05T02:29:55.462Z,37.07
2022-12-05T02:32:05.897Z,34.87
2022-12-05T02:34:20.979Z,36.90
2022-12-05T02:36:33.701Z,37.63
2022-12-05T02:38:43.260Z,37.43
2022-12-05T02:40:56.460Z,37.37
2022-12-05T02:43:06.807Z,36.73
2022-12-05T02:45:15.196Z,37.73
2022-12-05T02:47:22.573Z,39.10
2022-12-05T02:49:30.274Z,37.27
2022-12-05T02:51:36.249Z,38.40
2022-12-05T02:53:39.901Z,38.17
2022-12-05T02:55:44.313Z,39.10
2022-12-05T02:57:51.986Z,38.40
2022-12-05T02:59:54.923Z,37.07
2022-12-05T03:01:59.072Z,38.10
2022-12-05T03:04:05.073Z,36.70
2022-12-05T03:06:14.191Z,37.20
2022-12-05T03:08:21.640Z,37.00
2022-12-05T03:10:29.657Z,36.50
2022-12-05T03:12:36.726Z,36.00
2022-12-05T03:14:45.536Z,37.33
2022-12-05T03:16:51.373Z,35.43
2022-12-05T03:18:59.778Z,39.00
2022-12-05T03:21:06.217Z,34.93
2022-12-05T03:23:15.023Z,35.87
2022-12-05T03:25:18.587Z,37.17
2022-12-05T03:27:26.603Z,35.07
2022-12-05T03:29:35.205Z,36.20
2022-12-05T03:31:44.197Z,36.10
2022-12-05T03:33:51.473Z,35.67
2022-12-05T03:36:03.462Z,35.67
2022-12-05T03:38:11.612Z,36.60
2022-12-05T03:40:24.359Z,36.27
2022-12-05T03:42:34.272Z,35.27
2022-12-05T03:44:46.056Z,33.93
2022-12-05T03:46:53.600Z,34.30
2022-12-05T03:49:02.860Z,36.07
2022-12-05T03:51:11.253Z,34.37
2022-12-05T03:53:20.165Z,33.23
2022-12-05T03:55:27.476Z,34.60
2022-12-05T03:57:34.360Z,35.43
2022-12-05T03:59:41.178Z,35.97
2022-12-05T04:01:46.043Z,32.23
2022-12-05T04:03:53.405Z,34.13
2022-12-05T04:05:59.814Z,35.60
2022-12-05T04:08:07.783Z,34.20
2022-12-05T04:10:16.369Z,34.83
2022-12-05T04:12:23.960Z,33.67
2022-12-05T04:14:33.886Z,33.83
2022-12-05T04:16:58.934Z,34.20
2022-12-05T04:19:05.504Z,33.17
2022-12-05T04:21:26.313Z,34.37
2022-12-05T04:23:30.632Z,30.97
2022-12-05T04:25:37.121Z,30.17
2022-12-05T04:27:43.887Z,32.93
2022-12-05T04:29:55.946Z,33.50
2022-12-05T04:32:04.574Z,32.40
2022-12-05T04:34:10.269Z,31.47
2022-12-05T04:36:16.071Z,31.90
2022-12-05T04:38:24.171Z,30.87
2022-12-05T04:40:35.487Z,32.43
2022-12-05T04:42:38.965Z,30.37
2022-12-05T04:44:44.776Z,32.77
2022-12-05T04:46:49.738Z,30.93
2022-12-05T04:48:57.372Z,33.67
2022-12-05T04:51:00.478Z,32.70
2022-12-05T04:53:04.041Z,33.03
2022-12-05T04:55:11.085Z,29.77
2022-12-05T04:57:19.442Z,30.67
2022-12-05T04:59:22.541Z,30.53
2022-12-05T05:01:29.348Z,30.53
2022-12-05T05:03:39.610Z,29.37
2022-12-05T05:05:47.213Z,29.43
2022-12-05T05:07:53.751Z,31.90
2022-12-05T05:09:57.595Z,32.20
2022-12-05T05:12:00.681Z,35.13
2022-12-05T05:14:05.208Z,30.77
2022-12-05T05:16:10.181Z,34.87
2022-12-05T05:18:13.010Z,32.87
2022-12-05T05:20:25.064Z,30.90
2022-12-05T05:22:27.814Z,30.03
2022-12-05T05:24:30.511Z,31.47
2022-12-05T05:26:36.277Z,31.67
2022-12-05T05:28:39.114Z,32.20
2022-12-05T05:30:43.211Z,33.13
2022-12-05T05:32:46.373Z,32.73
2022-12-05T05:34:49.183Z,33.40
2022-12-05T05:36:53.110Z,33.67
2022-12-05T05:38:58.157Z,32.57
2022-12-05T05:41:01.871Z,34.40
2022-12-05T05:43:05.068Z,35.60
2022-12-05T05:45:08.950Z,34.73
2022-12-05T05:47:12.996Z,33.67
2022-12-05T05:49:15.689Z,32.20
2022-12-05T05:51:20.345Z,33.07
2022-12-05T05:53:23.216Z,31.93
2022-12-05T05:55:26.073Z,31.10
2022-12-05T05:57:28.886Z,32.83
2022-12-05T05:59:31.580Z,32.53
2022-12-05T06:01:34.313Z,32.93
2022-12-05T06:03:38.870Z,34.50
2022-12-05T06:05:41.773Z,36.37
2022-12-05T06:07:44.552Z,37.27
2022-12-05T06:09:47.252Z,35.80
2022-12-05T06:11:50.009Z,39.00
2022-12-05T06:13:53.310Z,40.77
2022-12-05T06:15:56.270Z,36.23
2022-12-05T06:17:59.120Z,41.00
2022-12-05T06:20:03.174Z,41.87
2022-12-05T06:22:05.905Z,40.30
2022-12-05T06:24:09.382Z,41.47
2022-12-05T06:26:13.309Z,38.53
2022-12-05T06:28:16.314Z,37.83
2022-12-05T06:30:19.165Z,40.10
2022-12-05T06:32:22.137Z,39.23
2022-12-05T06:34:24.906Z,39.03
2022-12-05T06:36:29.476Z,36.10
2022-12-05T06:38:32.221Z,36.63
2022-12-05T06:40:35.303Z,37.97
2022-12-05T06:42:38.014Z,37.73
2022-12-05T06:44:40.759Z,38.23
2022-12-05T06:46:43.521Z,38.83
2022-12-05T06:48:46.434Z,37.37
2022-12-05T06:50:50.689Z,37.10
2022-12-05T06:52:54.764Z,39.77
2022-12-05T06:54:57.428Z,37.60
2022-12-05T06:57:00.162Z,38.93
2022-12-05T06:59:03.079Z,40.17
2022-12-05T07:01:23.654Z,40.53
2022-12-05T07:03:26.434Z,41.40
2022-12-05T07:05:29.193Z,40.43
2022-12-05T07:07:32.151Z,41.13
2022-12-05T07:09:48.381Z,38.80
2022-12-05T07:11:52.133Z,39.37
2022-12-05T07:13:55.102Z,38.97
2022-12-05T07:15:58.898Z,39.40
2022-12-05T07:18:01.933Z,40.90
2022-12-05T07:20:05.731Z,37.63
2022-12-05T07:22:13.892Z,37.63
2022-12-05T07:24:18.730Z,34.93
2022-12-05T07:26:25.105Z,37.20
2022-12-05T07:28:28.209Z,33.00
2022-12-05T07:30:30.931Z,34.73
2022-12-05T07:32:34.869Z,34.73
2022-12-05T07:34:38.638Z,37.63
2022-12-05T07:36:41.711Z,37.53
2022-12-05T07:38:45.239Z,37.33
2022-12-05T07:40:48.154Z,39.13
2022-12-05T07:42:53.317Z,40.03
2022-12-05T07:44:56.110Z,37.60
2022-12-05T07:46:59.204Z,39.07
2022-12-05T07:49:02.290Z,37.70
2022-12-05T07:51:06.625Z,36.83
2022-12-05T07:53:09.545Z,35.40
2022-12-05T07:55:12.511Z,35.53
2022-12-05T07:57:15.598Z,36.67
2022-12-05T07:59:19.892Z,36.33
2022-12-05T08:01:24.545Z,37.63
2022-12-05T08:03:27.332Z,34.30
2022-12-05T08:05:30.387Z,38.20
2022-12-05T08:07:33.124Z,37.60
2022-12-05T08:09:35.948Z,32.53
2022-12-05T08:11:38.786Z,32.07
2022-12-05T08:13:43.024Z,33.97
2022-12-05T08:15:47.244Z,37.57
2022-12-05T08:17:50.149Z,41.23
2022-12-05T08:19:53.087Z,40.03
2022-12-05T08:21:56.059Z,41.93
2022-12-05T08:23:59.655Z,42.10
2022-12-05T08:26:03.915Z,40.80
2022-12-05T08:28:06.866Z,42.07
2022-12-05T08:30:10.628Z,39.97
2022-12-05T08:32:14.665Z,41.83
2022-12-05T08:34:18.966Z,40.13
2022-12-05T08:36:21.903Z,42.33
2022-12-05T08:38:24.591Z,40.80
2022-12-05T08:40:27.518Z,41.97
2022-12-05T08:42:30.262Z,43.67
2022-12-05T08:44:33.202Z,42.70
2022-12-05T08:46:38.122Z,41.70
2022-12-05T08:48:42.513Z,40.83
2022-12-05T08:50:45.438Z,40.33
2022-12-05T08:52:48.302Z,37.97
2022-12-05T08:54:51.413Z,38.57
2022-12-05T08:56:54.279Z,37.20
2022-12-05T08:59:04.571Z,35.70
2022-12-05T09:01:09.756Z,36.57
2022-12-05T09:03:13.350Z,36.97
2022-12-05T09:05:27.693Z,33.43
2022-12-05T09:07:31.768Z,31.47
2022-12-05T09:09:35.433Z,31.50
2022-12-05T09:11:45.981Z,32.87
2022-12-05T09:13:49.650Z,31.13
2022-12-05T09:15:54.688Z,31.23
2022-12-05T09:17:57.431Z,30.20
2022-12-05T09:20:00.213Z,29.93
2022-12-05T09:22:06.171Z,30.17
2022-12-05T09:24:09.194Z,30.37
2022-12-05T09:26:14.609Z,29.17
2022-12-05T09:28:17.306Z,28.77
2022-12-05T09:30:20.090Z,28.43
2022-12-05T09:32:23.096Z,28.87
2022-12-05T09:34:26.359Z,28.73
2022-12-05T09:36:31.447Z,27.13
2022-12-05T09:38:36.120Z,27.20
2022-12-05T09:40:42.610Z,26.30
2022-12-05T09:42:57.415Z,27.77
2022-12-05T09:45:14.303Z,26.37
2022-12-05T09:47:26.477Z,27.07
2022-12-05T09:49:31.496Z,27.10
2022-12-05T09:51:52.175Z,27.37
2022-12-05T09:53:59.109Z,26.30
2022-12-05T09:56:06.060Z,24.83
2022-12-05T09:58:21.809Z,27.67
2022-12-05T10:00:26.269Z,25.57
2022-12-05T10:02:40.779Z,27.77
2022-12-05T10:05:00.153Z,26.30
2022-12-05T10:07:11.985Z,25.07
2022-12-05T10:09:31.766Z,24.37
2022-12-05T10:11:40.018Z,23.20
2022-12-05T10:13:51.578Z,22.93
2022-12-05T10:15:58.559Z,24.27
2022-12-05T10:18:05.954Z,22.77
2022-12-05T10:20:15.881Z,23.10
2022-12-05T10:22:23.369Z,23.67
2022-12-05T10:24:33.670Z,24.13
2022-12-05T10:26:42.331Z,22.40
2022-12-05T10:28:52.162Z,22.03
2022-12-05T10:30:59.651Z,22.43
2022-12-05T10:33:09.518Z,22.50
2022-12-05T10:35:17.977Z,21.07
2022-12-05T10:37:22.159Z,21.37
2022-12-05T10:39:25.342Z,22.37
2022-12-05T10:41:29.816Z,23.07
2022-12-05T10:43:34.470Z,22.30
2022-12-05T10:45:42.543Z,23.13
2022-12-05T10:47:45.394Z,23.53
2022-12-05T10:49:48.327Z,23.20
2022-12-05T10:51:51.957Z,23.73
2022-12-05T10:53:55.590Z,23.80
2022-12-05T10:58:26.350Z,26.67
2022-12-05T11:00:31.489Z,27.50
2022-12-05T11:02:36.730Z,27.17
2022-12-05T11:04:44.675Z,25.67
2022-12-05T11:06:53.002Z,25.87
2022-12-05T11:09:05.791Z,26.07
2022-12-05T11:11:20.520Z,26.07
2022-12-05T11:13:27.318Z,25.03
2022-12-05T11:15:32.121Z,24.63
2022-12-05T11:17:36.836Z,24.80
2022-12-05T11:19:39.980Z,24.63
2022-12-05T11:21:43.788Z,24.93
2022-12-05T11:23:47.020Z,25.53
2022-12-05T11:25:49.965Z,24.83
2022-12-05T11:27:55.884Z,25.17
2022-12-05T11:30:06.257Z,25.43
2022-12-05T11:32:20.143Z,25.27
2022-12-05T11:34:27.258Z,26.67
2022-12-05T11:36:38.544Z,25.87
2022-12-05T11:38:42.320Z,25.83
2022-12-05T11:40:54.462Z,26.60
2022-12-05T11:43:21.187Z,26.53
2022-12-05T11:45:46.107Z,25.60
2022-12-05T11:48:04.473Z,26.40
2022-12-05T11:50:26.408Z,27.27
2022-12-05T11:52:40.798Z,26.03
2022-12-05T11:55:05.634Z,27.53
2022-12-05T11:57:18.093Z,26.53
2022-12-05T11:59:38.855Z,25.17
2022-12-05T12:01:54.153Z,26.03
2022-12-05T12:04:20.834Z,26.87
2022-12-05T12:06:32.591Z,25.57
2022-12-05T12:08:49.848Z,26.27
2022-12-05T12:11:03.490Z,26.70
2022-12-05T12:13:21.206Z,24.93
2022-12-05T12:15:41.986Z,25.23
2022-12-05T12:17:55.758Z,25.33
2022-12-05T12:20:15.871Z,25.00
2022-12-05T12:22:29.826Z,24.47
2022-12-05T12:24:46.323Z,25.57
2022-12-05T12:26:58.000Z,24.47
2022-12-05T12:29:12.274Z,23.43
2022-12-05T12:31:39.883Z,23.23
2022-12-05T12:33:52.167Z,24.10
2022-12-05T12:36:03.786Z,24.07
2022-12-05T12:38:21.189Z,24.33
2022-12-05T12:40:31.854Z,23.87
2022-12-05T12:42:41.719Z,23.20
2022-12-05T12:45:10.121Z,23.80
2022-12-05T12:47:20.378Z,23.37
2022-12-05T12:49:40.357Z,22.57
2022-12-05T12:51:49.908Z,23.87
2022-12-05T12:54:13.902Z,23.03
2022-12-05T12:56:36.530Z,24.17
2022-12-05T12:58:48.435Z,22.47
2022-12-05T13:01:00.461Z,22.17
2022-12-05T13:03:11.001Z,23.33
2022-12-05T13:05:27.626Z,21.00
2022-12-05T13:07:37.151Z,22.40
2022-12-05T13:09:48.764Z,22.03
2022-12-05T13:11:57.221Z,21.10
2022-12-05T13:14:02.498Z,23.23
2022-12-05T13:16:08.649Z,21.93
2022-12-05T13:18:17.370Z,22.47
2022-12-05T13:20:23.695Z,22.57
2022-12-05T13:22:29.445Z,22.83
2022-12-05T13:24:32.534Z,21.83
2022-12-05T13:26:35.951Z,22.47
2022-12-05T13:28:47.087Z,23.30
2022-12-05T13:30:58.559Z,22.27
2022-12-05T13:33:07.553Z,21.97
2022-12-05T13:35:18.103Z,21.93
2022-12-05T13:37:44.558Z,22.90
2022-12-05T13:40:10.848Z,22.77
2022-12-05T13:42:24.574Z,21.93
2022-12-05T13:44:34.455Z,20.57
2022-12-05T13:46:43.210Z,21.17
2022-12-05T13:48:49.927Z,22.40
2022-12-05T13:50:57.738Z,19.73
2022-12-05T13:53:05.785Z,22.10
2022-12-05T13:55:21.280Z,19.70
2022-12-05T13:57:47.736Z,19.83
2022-12-05T14:00:06.057Z,20.33
2022-12-05T14:02:42.324Z,19.80
2022-12-05T14:04:51.479Z,19.63
2022-12-05T14:06:58.706Z,19.20
2022-12-05T14:09:03.692Z,19.93
2022-12-05T14:11:12.886Z,20.43
2022-12-05T14:13:41.891Z,18.93
2022-12-05T14:15:46.346Z,17.70
2022-12-05T14:17:51.782Z,18.03
2022-12-05T14:20:12.135Z,18.00
2022-12-05T14:22:49.867Z,18.03
2022-12-05T14:25:03.156Z,17.47
2022-12-05T14:27:15.055Z,17.73
2022-12-05T14:29:39.033Z,17.90
2022-12-05T14:31:50.812Z,17.03
2022-12-05T14:34:06.940Z,16.27
2022-12-05T14:36:17.132Z,16.07
2022-12-05T14:38:24.558Z,16.27
2022-12-05T14:40:33.324Z,19.27
2022-12-05T14:42:42.682Z,21.03
2022-12-05T14:44:48.142Z,16.20
2022-12-05T14:46:50.923Z,16.07
2022-12-05T14:48:55.936Z,16.53
2022-12-05T14:50:59.851Z,16.33
2022-12-05T14:53:31.286Z,16.27
2022-12-05T14:55:37.499Z,17.33
2022-12-05T14:57:48.062Z,16.10
2022-12-05T14:59:53.687Z,16.67
2022-12-05T15:01:58.579Z,17.40
2022-12-05T15:04:14.701Z,17.23
2022-12-05T15:06:17.953Z,17.37
2022-12-05T15:08:21.892Z,17.70
2022-12-05T15:10:28.673Z,18.67
2022-12-05T15:12:39.713Z,18.27
2022-12-05T15:14:48.943Z,17.37
2022-12-05T15:16:54.815Z,17.90
2022-12-05T15:19:01.602Z,16.87
2022-12-05T15:21:09.669Z,17.07
2022-12-05T15:23:41.001Z,17.00
2022-12-05T15:25:44.001Z,15.70
2022-12-05T15:27:55.130Z,16.07
2022-12-05T15:29:57.867Z,16.87
2022-12-05T15:32:02.483Z,17.10
2022-12-05T15:34:12.511Z,16.30
2022-12-05T15:36:15.379Z,15.77
2022-12-05T15:38:27.465Z,16.10
2022-12-05T15:40:37.309Z,16.97
2022-12-05T15:42:43.979Z,15.77
2022-12-05T15:44:48.192Z,15.43
2022-12-05T15:46:53.504Z,15.50
2022-12-05T15:48:59.495Z,15.87
2022-12-05T15:51:03.833Z,14.87
2022-12-05T15:53:14.041Z,16.10
2022-12-05T15:55:20.784Z,15.17
2022-12-05T15:57:29.008Z,15.67
2022-12-05T15:59:37.254Z,15.70
2022-12-05T16:01:46.418Z,15.27
2022-12-05T16:03:54.143Z,15.23
2022-12-05T16:05:59.406Z,17.37
2022-12-05T16:08:03.952Z,16.23
2022-12-05T16:10:13.596Z,15.63
2022-12-05T16:12:25.135Z,15.90
2022-12-05T16:17:02.602Z,16.10
2022-12-05T16:19:07.924Z,16.50
2022-12-05T16:21:31.943Z,16.50
2022-12-05T16:23:38.817Z,14.80
2022-12-05T16:25:41.835Z,14.63
2022-12-05T16:27:56.516Z,14.10
2022-12-05T16:30:11.430Z,14.60
2022-12-05T16:32:22.351Z,14.90
2022-12-05T16:34:27.040Z,14.23
2022-12-05T16:36:30.766Z,14.53
2022-12-05T16:38:34.078Z,14.57
2022-12-05T16:40:37.231Z,13.90
2022-12-05T16:42:39.964Z,13.90
2022-12-05T16:45:04.560Z,15.03
2022-12-05T16:47:23.866Z,13.97
2022-12-05T16:49:42.608Z,14.50
2022-12-05T16:51:57.020Z,15.17
2022-12-05T16:53:59.794Z,15.00
2022-12-05T16:56:04.815Z,14.73
2022-12-05T16:58:12.042Z,15.60
2022-12-05T17:00:15.950Z,14.60
2022-12-05T17:02:20.321Z,14.13
2022-12-05T17:04:23.996Z,14.23
2022-12-05T17:06:27.561Z,14.33
2022-12-05T17:08:30.381Z,14.43
2022-12-05T17:10:33.319Z,16.47
2022-12-05T17:12:36.233Z,15.70
2022-12-05T17:14:38.951Z,14.60
2022-12-05T17:16:42.012Z,15.07
2022-12-05T17:18:46.512Z,15.63
2022-12-05T17:20:52.611Z,16.03
2022-12-05T17:22:55.558Z,15.03
2022-12-05T17:25:00.694Z,14.63
2022-12-05T17:27:03.914Z,15.63
2022-12-05T17:29:06.617Z,15.10
2022-12-05T17:31:12.665Z,14.73
2022-12-05T17:33:16.983Z,14.80
2022-12-05T17:35:23.073Z,14.57
2022-12-05T17:37:26.006Z,15.00
2022-12-05T17:39:29.119Z,13.87
2022-12-05T17:41:31.891Z,14.33
2022-12-05T17:43:34.936Z,14.53
2022-12-05T17:45:37.746Z,15.37
2022-12-05T17:47:40.967Z,16.60
2022-12-05T17:49:44.761Z,16.20
2022-12-05T17:52:19.920Z,16.00
2022-12-05T17:54:11.899Z,15.80
2022-12-05T17:56:15.148Z,16.40
2022-12-05T17:58:18.327Z,17.50
2022-12-05T18:00:22.608Z,16.33
2022-12-05T18:02:25.418Z,16.60
2022-12-05T18:04:28.104Z,16.90
2022-12-05T18:06:30.861Z,15.93
2022-12-05T18:08:39.390Z,17.23
2022-12-05T18:10:42.709Z,16.10
2022-12-05T18:12:46.006Z,16.20
2022-12-05T18:14:48.735Z,16.87
2022-12-05T18:16:51.741Z,15.60
2022-12-05T18:18:55.039Z,15.53
2022-12-05T18:21:05.803Z,15.97
2022-12-05T18:23:08.900Z,16.33
2022-12-05T18:25:13.077Z,16.63
2022-12-05T18:27:16.166Z,18.40
2022-12-05T18:29:18.923Z,16.87
2022-12-05T18:31:21.668Z,16.50
2022-12-05T18:33:24.402Z,16.80
2022-12-05T18:35:40.985Z,17.27
2022-12-05T18:37:44.225Z,16.80
2022-12-05T18:39:47.135Z,16.80
2022-12-05T18:41:51.277Z,15.53
2022-12-05T18:43:54.762Z,15.53
2022-12-05T18:45:58.456Z,16.43
2022-12-05T18:48:16.305Z,16.20
2022-12-05T18:50:24.292Z,16.07
2022-12-05T18:52:27.424Z,16.97
2022-12-05T18:54:30.109Z,16.03
2022-12-05T18:56:35.457Z,16.43
2022-12-05T18:58:39.590Z,15.67
2022-12-05T19:00:42.381Z,16.67
2022-12-05T19:02:45.632Z,17.27
2022-12-05T19:04:48.592Z,19.07
2022-12-05T19:06:53.262Z,16.90
2022-12-05T19:08:57.513Z,16.40
2022-12-05T19:11:05.220Z,16.17
2022-12-05T19:13:08.113Z,15.83
2022-12-05T19:15:12.766Z,16.97
2022-12-05T19:17:16.063Z,15.80
2022-12-05T19:19:21.544Z,16.07
2022-12-05T19:21:25.645Z,16.07
2022-12-05T19:23:31.711Z,16.20
2022-12-05T19:25:36.985Z,15.63
2022-12-05T19:27:43.699Z,15.13
2022-12-05T19:29:48.975Z,15.13
2022-12-05T19:31:53.338Z,14.53
2022-12-05T19:33:59.342Z,15.00
2022-12-05T19:36:07.997Z,15.30
2022-12-05T19:38:11.079Z,15.20
2022-12-05T19:40:14.494Z,14.07
2022-12-05T19:42:21.427Z,15.60
2022-12-05T19:44:28.071Z,15.97
2022-12-05T19:46:33.248Z,15.50
2022-12-05T19:48:38.956Z,14.67
2022-12-05T19:50:42.315Z,15.17
2022-12-05T19:52:46.673Z,15.70
2022-12-05T19:54:53.265Z,15.43
2022-12-05T19:57:00.392Z,14.57
2022-12-05T19:59:03.788Z,15.53
2022-12-05T20:01:11.526Z,15.57
2022-12-05T20:03:14.673Z,14.93
2022-12-05T20:05:18.882Z,15.77
2022-12-05T20:07:21.615Z,15.40
2022-12-05T20:09:25.346Z,14.67
2022-12-05T20:11:29.298Z,14.93
2022-12-05T20:13:48.280Z,15.60
2022-12-05T20:15:51.273Z,14.87
2022-12-05T20:17:54.501Z,18.67
2022-12-05T20:19:58.867Z,15.07
2022-12-05T20:22:03.049Z,15.10
2022-12-05T20:24:06.692Z,14.90
2022-12-05T20:26:11.634Z,14.60
2022-12-05T20:28:15.470Z,14.90
2022-12-05T20:30:18.733Z,14.40
2022-12-05T20:32:22.060Z,14.33
2022-12-05T20:34:25.192Z,13.80
2022-12-05T20:36:29.694Z,13.20
2022-12-05T20:38:34.112Z,13.53
2022-12-05T20:40:36.877Z,14.30
2022-12-05T20:42:46.256Z,15.00
2022-12-05T20:44:49.444Z,13.80
2022-12-05T20:46:53.238Z,13.80
2022-12-05T20:48:56.654Z,12.83
2022-12-05T20:51:05.086Z,13.97
2022-12-05T20:53:08.083Z,14.10
2022-12-05T20:55:12.743Z,14.23
2022-12-05T20:57:15.665Z,13.73
2022-12-05T20:59:18.616Z,11.03
2022-12-05T21:01:22.414Z,9.93
2022-12-05T21:03:25.234Z,10.23
2022-12-05T21:05:28.495Z,9.97
2022-12-05T21:07:31.280Z,9.97
2022-12-05T21:09:35.702Z,9.77
2022-12-05T21:11:39.787Z,8.63
2022-12-05T21:13:42.507Z,9.03
2022-12-05T21:15:45.565Z,8.70
2022-12-05T21:17:48.355Z,8.43
2022-12-05T21:19:51.110Z,7.87
2022-12-05T21:21:54.883Z,7.20
2022-12-05T21:23:59.746Z,7.47
2022-12-05T21:26:04.665Z,7.50
2022-12-05T21:28:09.051Z,7.83
2022-12-05T21:30:12.493Z,7.20
2022-12-05T21:32:15.274Z,7.00
2022-12-05T21:34:20.317Z,7.00
2022-12-05T21:36:24.515Z,6.50
2022-12-05T21:38:27.380Z,6.50
2022-12-05T21:40:30.057Z,7.13
2022-12-05T21:42:32.816Z,6.97
2022-12-05T21:44:36.836Z,7.20
2022-12-05T21:46:39.804Z,6.53
2022-12-05T21:48:42.613Z,7.07
2022-12-05T21:50:45.316Z,6.27
2022-12-05T21:52:48.369Z,6.37
2022-12-05T21:54:51.093Z,6.83
2022-12-05T21:56:53.854Z,7.10
2022-12-05T21:58:56.673Z,6.60
2022-12-05T22:01:00.772Z,6.63
2022-12-05T22:03:03.588Z,5.97
2022-12-05T22:05:07.495Z,6.50
2022-12-05T22:07:10.387Z,6.70
2022-12-05T22:09:13.537Z,5.97
2022-12-05T22:11:19.069Z,6.03
2022-12-05T22:13:21.817Z,5.73
2022-12-05T22:15:24.567Z,6.40
2022-12-05T22:17:28.860Z,6.23
2022-12-05T22:19:31.589Z,5.57
2022-12-05T22:21:35.010Z,6.37
2022-12-05T22:23:37.823Z,5.07
2022-12-05T22:25:40.787Z,4.83
2022-12-05T22:27:43.758Z,4.87
2022-12-05T22:29:57.276Z,4.60
2022-12-05T22:32:00.030Z,4.77
2022-12-05T22:34:04.104Z,4.40
2022-12-05T22:36:09.006Z,4.57
2022-12-05T22:38:11.765Z,4.20
2022-12-05T22:40:14.793Z,4.20
2022-12-05T22:42:17.786Z,4.40
2022-12-05T22:44:20.563Z,3.80
2022-12-05T22:46:23.749Z,4.33
2022-12-05T22:48:27.593Z,4.23
2022-12-05T22:50:32.121Z,3.80
2022-12-05T22:52:34.880Z,3.67
2022-12-05T22:54:37.572Z,4.00
2022-12-05T22:56:40.262Z,4.10
2022-12-05T22:58:43.814Z,3.93
2022-12-05T23:00:47.158Z,4.60
2022-12-05T23:02:49.948Z,3.97
2022-12-05T23:04:52.739Z,4.40
2022-12-05T23:06:56.859Z,4.13
2022-12-05T23:09:00.070Z,4.37
2022-12-05T23:11:04.639Z,4.17
2022-12-05T23:13:07.511Z,4.30
2022-12-05T23:15:11.049Z,4.23
2022-12-05T23:17:13.818Z,4.43
2022-12-05T23:19:16.524Z,4.50
2022-12-05T23:21:20.699Z,4.50
2022-12-05T23:23:24.836Z,4.20
2022-12-05T23:25:27.723Z,5.20
2022-12-05T23:27:30.641Z,4.83
2022-12-05T23:29:33.505Z,4.90
2022-12-05T23:31:36.544Z,5.20
2022-12-05T23:33:40.004Z,4.90
2022-12-05T23:35:42.796Z,4.87
2022-12-05T23:37:48.441Z,4.90
2022-12-05T23:39:52.654Z,5.40
2022-12-05T23:41:55.841Z,5.93
2022-12-05T23:43:58.557Z,5.40
2022-12-05T23:46:02.146Z,4.90
2022-12-05T23:48:05.091Z,5.43
2022-12-05T23:50:09.045Z,6.07
2022-12-05T23:52:11.796Z,5.73
2022-12-05T23:54:14.507Z,5.70
2022-12-05T23:56:20.840Z,5.43
2022-12-05T23:58:23.535Z,5.67
